Portada
METAR-TAF:

METAR-TAF

Aeropuertos :

Resolute, Nunavut, Canadá

Aeropuerto de Resolute Bay

latitud: 74-43N, longitud: 094-59W, altitud: 67 m

Observación

El informe se hizo hace 58 minutos, a las 19:00 UTC
Viento 3 kt del sur-sureste
Temperatura -26°C
Humedad 76%
Presión 1014 hPa
Visibilidad: 24.1 km
Cielo despejado

METAR: CYRB 181900Z 15003KT 15SM SKC M26/M29 A2994 RMK SLP151

Hora: 13:58 (19:58 UTC)

Pronóstico

El informe se hizo hace 2 horas y 20 minutos, a las 17:38 UTC
Pronóstico válido del 18 a las 18 UTC al 19 a las 18 UTC
Viento 3 kt con dirección variable
Visibilidad: 10 km
Cielo despejado
cristales de hielo
Evolucionando progresivamente
del 19 a las 02 UTC al 19 a las 04 UTC
Viento 8 kt del este

TAF: CYRB 181738Z 1818/1918 VRB03KT P6SM IC SKC BECMG 1902/1904 09008KT RMK NXT FCST BY 190000Z

Observaciones y pronósticos meteorológicos de más de 4000 aeropuertos (mensajes METAR y TAF).

Los puntos amarillos y rojos representan las estaciones disponibles.

Ponga el ratón en el punto deseado para ver el nombre de la estación.

Haga clic para ver las observaciones y los pronósticos meteorológicos.

Para cambiar el mapa : haga clic en los botones verdes con una cruz de color negro para hacer un zoom, en el botón verde con un guión para alejar o en las flechas verdes para mapas adyacentes.


METAR-TAF: